Minneapolis, Minnesota
Traffic Map
Current Weather Conditions
Minneapolis, Minnesota
Broken Clouds
Broken Clouds
75°
Feels Like: 75°
Wind Chill: 75° Ceiling: 2000
Heat Index: 75° Visibility: 10mi
Dew Point: 71° Wind: 7mph
Humidity: 87% Direction: 110° (ESE)
Pressure: 29.78in Gusts: 0mph
Raw Report DataKMSP 240309Z 11006KT 10SM BKN020 BKN250 24/22 A2978 RMK AO2 T02390217
Traffic Incident Summary
Active as of:
Severity:
Category:
InformationThere was an issue retrieving the traffic information for this location. Please try a different location or try again shortly.
Advertisements
Track Severe Weather on mobile